createdAt,value
2022-12-11T00:02:41.240Z,98173.53
2022-12-11T00:05:44.109Z,98167.34
2022-12-11T00:08:46.451Z,98161.94
2022-12-11T00:11:48.862Z,98146.50
2022-12-11T00:14:50.908Z,98144.94
2022-12-11T00:17:52.986Z,98153.81
2022-12-11T00:20:55.055Z,98150.00
2022-12-11T00:23:57.147Z,98134.47
2022-12-11T00:26:59.270Z,98137.59
2022-12-11T00:30:01.372Z,98151.13
2022-12-11T00:33:03.551Z,98142.25
2022-12-11T00:36:11.898Z,98140.31
2022-12-11T00:39:13.960Z,98136.84
2022-12-11T00:42:16.107Z,98136.84
2022-12-11T00:45:18.208Z,98132.53
2022-12-11T00:48:20.260Z,98130.63
2022-12-11T00:51:22.411Z,98125.22
2022-12-11T00:54:24.471Z,98132.53
2022-12-11T00:57:26.503Z,98127.78
2022-12-11T01:00:28.592Z,98140.63
2022-12-11T01:03:30.691Z,98141.44
2022-12-11T01:06:32.833Z,98135.22
2022-12-11T01:09:53.529Z,98134.47
2022-12-11T01:13:04.261Z,98135.09
2022-12-11T01:16:11.829Z,98152.25
2022-12-11T01:19:13.966Z,98155.28
2022-12-11T01:22:16.007Z,98157.66
2022-12-11T01:25:18.144Z,98154.94
2022-12-11T01:28:20.246Z,98156.09
2022-12-11T01:31:22.330Z,98152.59
2022-12-11T01:34:24.434Z,98153.38
2022-12-11T01:37:26.568Z,98163.06
2022-12-11T01:40:29.195Z,98162.25
2022-12-11T01:43:31.307Z,98161.50
2022-12-11T01:46:35.307Z,98160.69
2022-12-11T01:49:39.533Z,98162.59
2022-12-11T01:52:43.534Z,98162.59
2022-12-11T01:55:46.650Z,98164.19
2022-12-11T01:58:55.139Z,98169.13
2022-12-11T02:02:01.182Z,98171.84
2022-12-11T02:05:05.394Z,98183.41
2022-12-11T02:08:07.972Z,98174.06
2022-12-11T02:11:16.736Z,98176.78
2022-12-11T02:14:43.077Z,98173.75
2022-12-11T02:18:24.013Z,98170.22
2022-12-11T02:21:30.177Z,98182.94
2022-12-11T02:24:38.260Z,98183.75
2022-12-11T02:27:47.495Z,98179.13
2022-12-11T02:30:57.453Z,98172.00
2022-12-11T02:33:59.448Z,98182.47
2022-12-11T02:37:06.942Z,98176.59
2022-12-11T02:40:11.388Z,98168.19
2022-12-11T02:43:14.579Z,98164.69
2022-12-11T02:46:18.117Z,98162.00
2022-12-11T02:49:21.037Z,98167.41
2022-12-11T02:52:25.608Z,98161.19
2022-12-11T02:55:29.547Z,98162.00
2022-12-11T02:58:32.719Z,98173.59
2022-12-11T03:01:34.885Z,98165.78
2022-12-11T03:04:37.496Z,98158.97
2022-12-11T03:07:42.180Z,98158.16
2022-12-11T03:10:45.481Z,98140.38
2022-12-11T03:13:47.665Z,98143.88
2022-12-11T03:17:05.560Z,98140.72
2022-12-11T03:20:31.516Z,98136.88
2022-12-11T03:23:41.468Z,98146.56
2022-12-11T03:26:47.143Z,98146.56
2022-12-11T03:30:02.354Z,98144.19
2022-12-11T03:33:12.023Z,98134.16
2022-12-11T03:36:19.271Z,98138.00
2022-12-11T03:39:27.716Z,98137.66
2022-12-11T03:42:29.864Z,98135.75
2022-12-11T03:45:32.916Z,98141.16
2022-12-11T03:48:38.820Z,98154.69
2022-12-11T03:51:42.278Z,98156.25
2022-12-11T03:54:46.922Z,98158.16
2022-12-11T03:57:48.999Z,98149.56
2022-12-11T04:00:51.133Z,98148.16
2022-12-11T04:03:53.313Z,98156.25
2022-12-11T04:06:55.505Z,98153.56
2022-12-11T04:09:57.577Z,98156.59
2022-12-11T04:12:59.642Z,98167.06
2022-12-11T04:16:01.788Z,98164.34
2022-12-11T04:19:23.097Z,98158.81
2022-12-11T04:22:43.756Z,98168.50
2022-12-11T04:25:45.871Z,98174.69
2022-12-11T04:28:48.742Z,98182.47
2022-12-11T04:31:50.867Z,98177.41
2022-12-11T04:34:53.032Z,98177.41
2022-12-11T04:37:55.259Z,98182.81
2022-12-11T04:41:01.870Z,98186.31
2022-12-11T04:44:04.179Z,98195.22
2022-12-11T04:47:06.309Z,98201.72
2022-12-11T04:50:10.129Z,98218.75
2022-12-11T04:53:12.277Z,98225.25
2022-12-11T04:56:15.976Z,98227.66
2022-12-11T04:59:18.140Z,98222.53
2022-12-11T05:02:20.268Z,98230.19
2022-12-11T05:05:22.363Z,98237.19
2022-12-11T05:08:24.596Z,98231.78
2022-12-11T05:11:26.780Z,98257.66
2022-12-11T05:14:31.919Z,98251.78
2022-12-11T05:17:34.043Z,98247.19
2022-12-11T05:20:36.186Z,98255.31
2022-12-11T05:23:38.688Z,98259.59
2022-12-11T05:26:40.855Z,98251.78
2022-12-11T05:29:43.105Z,98252.59
2022-12-11T05:32:45.280Z,98250.22
2022-12-11T05:35:48.204Z,98251.50
2022-12-11T05:38:51.540Z,98251.50
2022-12-11T05:41:53.713Z,98254.97
2022-12-11T05:44:55.844Z,98250.69
2022-12-11T05:47:58.083Z,98250.69
2022-12-11T05:51:01.602Z,98241.47
2022-12-11T05:54:03.997Z,98247.53
2022-12-11T05:57:06.089Z,98252.59
2022-12-11T06:00:09.137Z,98253.41
2022-12-11T06:03:11.311Z,98273.13
2022-12-11T06:06:13.892Z,98275.00
2022-12-11T06:09:17.081Z,98284.69
2022-12-11T06:12:19.221Z,98280.41
2022-12-11T06:15:21.440Z,98282.31
2022-12-11T06:18:23.508Z,98300.91
2022-12-11T06:21:28.239Z,98295.84
2022-12-11T06:24:30.348Z,98310.16
2022-12-11T06:27:32.424Z,98315.56
2022-12-11T06:30:39.130Z,98329.06
2022-12-11T06:33:42.058Z,98329.88
2022-12-11T06:36:44.184Z,98327.16
2022-12-11T06:39:46.250Z,98341.78
2022-12-11T06:42:48.410Z,98348.31
2022-12-11T06:45:51.120Z,98356.56
2022-12-11T06:48:53.224Z,98356.09
2022-12-11T06:51:55.327Z,98358.78
2022-12-11T06:54:57.492Z,98366.09
2022-12-11T06:57:59.592Z,98380.41
2022-12-11T07:01:02.180Z,98381.50
2022-12-11T07:04:04.368Z,98384.22
2022-12-11T07:07:06.797Z,98379.59
2022-12-11T07:10:09.610Z,98380.41
2022-12-11T07:13:11.818Z,98374.53
2022-12-11T07:16:15.196Z,98376.91
2022-12-11T07:19:17.645Z,98382.31
2022-12-11T07:22:19.731Z,98375.31
2022-12-11T07:25:21.866Z,98386.63
2022-12-11T07:28:24.135Z,98397.41
2022-12-11T07:31:28.509Z,98404.72
2022-12-11T07:34:30.621Z,98409.81
2022-12-11T07:37:32.975Z,98408.22
2022-12-11T07:40:35.077Z,98401.69
2022-12-11T07:43:37.963Z,98396.63
2022-12-11T07:46:40.132Z,98407.09
2022-12-11T07:49:42.276Z,98419.03
2022-12-11T07:52:44.581Z,98420.63
2022-12-11T07:55:46.676Z,98430.00
2022-12-11T07:58:48.855Z,98427.63
2022-12-11T08:01:51.023Z,98446.22
2022-12-11T08:04:53.115Z,98463.53
2022-12-11T08:07:55.730Z,98455.13
2022-12-11T08:11:04.544Z,98470.88
2022-12-11T08:14:08.695Z,98465.47
2022-12-11T08:17:10.778Z,98474.34
2022-12-11T08:20:13.148Z,98477.38
2022-12-11T08:23:15.312Z,98489.78
2022-12-11T08:26:36.371Z,98495.19
2022-12-11T08:29:38.594Z,98495.47
2022-12-11T08:32:41.108Z,98503.59
2022-12-11T08:35:44.113Z,98507.91
2022-12-11T08:38:46.974Z,98514.88
2022-12-11T08:41:49.108Z,98510.59
2022-12-11T08:44:51.795Z,98527.91
2022-12-11T08:47:55.515Z,98537.94
2022-12-11T08:51:02.180Z,98540.34
2022-12-11T08:54:04.297Z,98541.13
2022-12-11T08:57:06.377Z,98546.06
2022-12-11T09:00:09.500Z,98561.16
2022-12-11T09:03:13.110Z,98564.97
2022-12-11T09:06:18.124Z,98562.28
2022-12-11T09:09:20.342Z,98561.16
2022-12-11T09:12:23.078Z,98569.56
2022-12-11T09:15:25.140Z,98560.66
2022-12-11T09:18:27.274Z,98571.47
2022-12-11T09:21:30.358Z,98563.03
2022-12-11T09:24:32.501Z,98563.38
2022-12-11T09:27:35.318Z,98558.75
2022-12-11T09:30:37.484Z,98568.78
2022-12-11T09:33:40.451Z,98566.06
2022-12-11T09:36:44.296Z,98568.78
2022-12-11T09:39:46.536Z,98557.97
2022-12-11T09:42:58.308Z,98562.56
2022-12-11T09:46:03.689Z,98574.19
2022-12-11T09:49:15.120Z,98557.97
2022-12-11T09:52:52.575Z,98540.16
2022-12-11T09:56:04.702Z,98538.88
2022-12-11T09:59:28.321Z,98548.28
2022-12-11T10:03:07.140Z,98545.56
2022-12-11T10:06:17.929Z,98545.56
2022-12-11T10:09:28.010Z,98536.34
2022-12-11T10:12:55.587Z,98533.66
2022-12-11T10:16:07.755Z,98533.16
2022-12-11T10:19:27.794Z,98540.94
2022-12-11T10:22:31.626Z,98557.16
2022-12-11T10:25:41.404Z,98552.56
2022-12-11T10:28:43.648Z,98571.00
2022-12-11T10:31:57.390Z,98581.81
2022-12-11T10:35:01.804Z,98576.06
2022-12-11T10:38:30.957Z,98569.91
2022-12-11T10:41:44.123Z,98569.09
2022-12-11T10:45:00.821Z,98574.50
2022-12-11T10:48:09.824Z,98586.13
2022-12-11T10:51:12.208Z,98595.31
2022-12-11T10:54:38.125Z,98598.34
2022-12-11T10:57:40.324Z,98607.25
2022-12-11T11:00:42.447Z,98606.44
2022-12-11T11:04:06.268Z,98601.84
2022-12-11T11:07:19.481Z,98606.13
2022-12-11T11:10:21.670Z,98594.53
2022-12-11T11:13:25.924Z,98598.03
2022-12-11T11:16:28.187Z,98594.84
2022-12-11T11:19:35.184Z,98591.34
2022-12-11T11:22:41.735Z,98578.63
2022-12-11T11:26:10.255Z,98572.44
2022-12-11T11:29:32.067Z,98582.44
2022-12-11T11:32:39.167Z,98588.94
2022-12-11T11:36:02.387Z,98587.06
2022-12-11T11:39:17.944Z,98603.75
2022-12-11T11:42:28.912Z,98602.94
2022-12-11T11:45:45.215Z,98615.34
2022-12-11T11:49:12.195Z,98622.66
2022-12-11T11:52:35.497Z,98623.47
2022-12-11T11:55:52.025Z,98637.31
2022-12-11T11:59:03.968Z,98623.59
2022-12-11T12:02:14.836Z,98629.97
2022-12-11T12:05:23.857Z,98633.78
2022-12-11T12:08:32.616Z,98642.69
2022-12-11T12:11:42.840Z,98648.88
2022-12-11T12:14:54.892Z,98651.59
2022-12-11T12:18:15.100Z,98654.28
2022-12-11T12:21:44.738Z,98646.50
2022-12-11T12:24:59.308Z,98651.91
2022-12-11T12:28:22.837Z,98650.81
2022-12-11T12:31:34.689Z,98642.22
2022-12-11T12:34:44.083Z,98645.69
2022-12-11T12:37:55.403Z,98641.91
2022-12-11T12:41:22.780Z,98646.50
2022-12-11T12:44:25.620Z,98640.28
2022-12-11T12:47:31.367Z,98649.53
2022-12-11T12:50:38.942Z,98653.03
2022-12-11T12:53:44.268Z,98661.91
2022-12-11T12:56:47.058Z,98667.31
2022-12-11T12:59:54.752Z,98667.31
2022-12-11T13:02:57.220Z,98670.34
2022-12-11T13:06:03.109Z,98688.16
2022-12-11T13:09:26.443Z,98702.44
2022-12-11T13:12:43.124Z,98707.06
2022-12-11T13:15:45.381Z,98717.41
2022-12-11T13:18:48.374Z,98715.19
2022-12-11T13:22:12.868Z,98727.56
2022-12-11T13:25:34.391Z,98721.34
2022-12-11T13:28:39.484Z,98729.47
2022-12-11T13:31:44.123Z,98732.47
2022-12-11T13:34:54.268Z,98722.78
2022-12-11T13:38:07.061Z,98735.19
2022-12-11T13:41:12.656Z,98739.78
2022-12-11T13:44:39.608Z,98740.91
2022-12-11T13:47:41.880Z,98743.63
2022-12-11T13:50:44.516Z,98743.94
2022-12-11T13:53:47.000Z,98742.50
2022-12-11T13:57:04.215Z,98738.53
2022-12-11T14:00:21.393Z,98747.91
2022-12-11T14:03:23.747Z,98758.22
2022-12-11T14:06:27.576Z,98764.09
2022-12-11T14:09:29.820Z,98770.63
2022-12-11T14:12:32.837Z,98778.25
2022-12-11T14:15:36.221Z,98787.94
2022-12-11T14:18:38.451Z,98777.13
2022-12-11T14:21:40.588Z,98790.63
2022-12-11T14:24:52.720Z,98791.28
2022-12-11T14:27:56.535Z,98799.88
2022-12-11T14:30:59.797Z,98806.38
2022-12-11T14:34:30.219Z,98813.38
2022-12-11T14:37:33.155Z,98822.28
2022-12-11T14:40:39.323Z,98829.09
2022-12-11T14:43:51.535Z,98824.50
2022-12-11T14:46:57.988Z,98823.69
2022-12-11T14:50:05.839Z,98830.50
2022-12-11T14:53:15.801Z,98831.81
2022-12-11T14:56:27.012Z,98838.78
2022-12-11T14:59:32.065Z,98835.31
2022-12-11T15:02:36.400Z,98830.69
2022-12-11T15:05:56.495Z,98833.38
2022-12-11T15:09:28.496Z,98844.19
2022-12-11T15:12:31.099Z,98844.50
2022-12-11T15:15:39.151Z,98851.84
2022-12-11T15:18:47.529Z,98855.63
2022-12-11T15:21:49.912Z,98857.53
2022-12-11T15:24:54.025Z,98851.03
2022-12-11T15:27:58.731Z,98861.03
2022-12-11T15:31:04.307Z,98857.53
2022-12-11T15:34:23.315Z,98863.72
2022-12-11T15:37:28.306Z,98871.84
2022-12-11T15:40:30.576Z,98869.94
2022-12-11T15:43:36.439Z,98874.53
2022-12-11T15:46:38.608Z,98872.16
2022-12-11T15:49:41.139Z,98867.56
2022-12-11T15:52:44.069Z,98867.25
2022-12-11T15:55:46.400Z,98878.06
2022-12-11T15:58:48.903Z,98872.97
2022-12-11T16:01:51.173Z,98866.25
2022-12-11T16:04:54.034Z,98874.06
2022-12-11T16:07:59.387Z,98881.06
2022-12-11T16:11:01.793Z,98885.97
2022-12-11T16:14:04.528Z,98891.06
2022-12-11T16:17:07.968Z,98895.34
2022-12-11T16:20:11.008Z,98899.19
2022-12-11T16:23:14.770Z,98904.56
2022-12-11T16:26:16.928Z,98893.28
2022-12-11T16:29:19.017Z,98903.78
2022-12-11T16:32:21.231Z,98894.19
2022-12-11T16:35:23.587Z,98905.38
2022-12-11T16:38:25.709Z,98907.59
2022-12-11T16:41:27.783Z,98914.88
2022-12-11T16:44:29.865Z,98914.56
2022-12-11T16:47:32.029Z,98923.81
2022-12-11T16:50:34.548Z,98925.38
2022-12-11T16:53:36.674Z,98912.19
2022-12-11T16:56:39.297Z,98910.28
2022-12-11T16:59:43.216Z,98912.19
2022-12-11T17:02:45.341Z,98911.38
2022-12-11T17:05:47.517Z,98918.41
2022-12-11T17:08:49.627Z,98916.78
2022-12-11T17:11:51.682Z,98914.88
2022-12-11T17:14:54.840Z,98914.09
2022-12-11T17:17:57.051Z,98913.00
2022-12-11T17:20:59.777Z,98911.88
2022-12-11T17:24:01.916Z,98914.41
2022-12-11T17:27:04.090Z,98922.69
2022-12-11T17:30:06.773Z,98910.56
2022-12-11T17:33:08.969Z,98920.28
2022-12-11T17:36:14.147Z,98923.00
2022-12-11T17:39:16.625Z,98917.09
2022-12-11T17:42:18.786Z,98918.41
2022-12-11T17:45:20.882Z,98916.78
2022-12-11T17:48:23.108Z,98918.69
2022-12-11T17:51:25.228Z,98917.59
2022-12-11T17:54:27.357Z,98909.81
2022-12-11T17:57:29.468Z,98924.09
2022-12-11T18:00:33.350Z,98922.19
2022-12-11T18:03:36.437Z,98918.41
2022-12-11T18:06:38.561Z,98922.19
2022-12-11T18:09:41.060Z,98920.59
2022-12-11T18:12:43.110Z,98929.22
2022-12-11T18:15:45.261Z,98933.00
2022-12-11T18:18:48.198Z,98936.19
2022-12-11T18:21:50.474Z,98943.81
2022-12-11T18:24:52.600Z,98938.41
2022-12-11T18:27:55.206Z,98936.81
2022-12-11T18:31:00.872Z,98950.81
2022-12-11T18:34:03.254Z,98951.09
2022-12-11T18:37:05.351Z,98948.41
2022-12-11T18:40:08.338Z,98954.63
2022-12-11T18:43:10.449Z,98953.81
2022-12-11T18:46:15.141Z,98955.72
2022-12-11T18:49:17.452Z,98963.03
2022-12-11T18:52:19.645Z,98963.03
2022-12-11T18:55:21.983Z,98959.53
2022-12-11T18:58:24.110Z,98967.63
2022-12-11T19:01:28.771Z,98966.53
2022-12-11T19:04:30.899Z,98976.22
2022-12-11T19:07:33.071Z,98974.16
2022-12-11T19:10:44.584Z,98982.75
2022-12-11T19:13:47.204Z,98988.16
2022-12-11T19:16:50.758Z,98990.06
2022-12-11T19:19:53.179Z,98988.94
2022-12-11T19:22:55.317Z,98983.84
2022-12-11T19:25:57.484Z,98993.25
2022-12-11T19:29:00.313Z,98983.84
2022-12-11T19:32:02.943Z,98988.16
2022-12-11T19:35:05.322Z,98987.66
2022-12-11T19:38:08.375Z,98990.84
2022-12-11T19:41:14.735Z,98988.16
2022-12-11T19:44:16.813Z,98985.72
2022-12-11T19:47:18.912Z,98994.66
2022-12-11T19:50:24.526Z,98997.03
2022-12-11T19:53:26.633Z,99005.44
2022-12-11T19:56:29.136Z,99005.13
2022-12-11T19:59:31.233Z,99000.84
2022-12-11T20:02:33.479Z,99005.13
2022-12-11T20:05:35.776Z,98997.03
2022-12-11T20:08:46.006Z,99004.06
2022-12-11T20:11:48.651Z,99003.25
2022-12-11T20:14:50.821Z,99014.06
2022-12-11T20:17:57.072Z,99014.06
2022-12-11T20:21:03.942Z,99030.56
2022-12-11T20:24:06.331Z,99021.66
2022-12-11T20:27:09.556Z,99025.19
2022-12-11T20:30:12.456Z,99026.25
2022-12-11T20:33:14.588Z,99016.25
2022-12-11T20:36:18.263Z,99024.38
2022-12-11T20:39:20.385Z,99017.38
2022-12-11T20:42:22.694Z,99020.84
2022-12-11T20:45:25.319Z,99017.38
2022-12-11T20:48:27.576Z,99020.84
2022-12-11T20:51:30.274Z,99027.38
2022-12-11T20:54:32.584Z,99030.88
2022-12-11T20:57:34.687Z,99021.66
2022-12-11T21:00:37.733Z,99016.25
2022-12-11T21:03:42.108Z,99034.09
2022-12-11T21:06:44.580Z,99030.88
2022-12-11T21:09:46.953Z,99028.97
2022-12-11T21:12:49.233Z,99044.09
2022-12-11T21:15:53.843Z,99043.59
2022-12-11T21:18:57.361Z,99048.19
2022-12-11T21:21:59.463Z,99056.28
2022-12-11T21:25:01.631Z,99059.50
2022-12-11T21:28:04.019Z,99067.09
2022-12-11T21:31:13.433Z,99074.13
2022-12-11T21:34:18.316Z,99083.31
2022-12-11T21:37:24.268Z,99081.41
2022-12-11T21:40:26.391Z,99080.09
2022-12-11T21:43:28.528Z,99087.91
2022-12-11T21:46:30.785Z,99084.13
2022-12-11T21:49:32.911Z,99079.03
2022-12-11T21:52:37.348Z,99081.72
2022-12-11T21:55:41.467Z,99086.31
2022-12-11T21:58:44.089Z,99083.31
2022-12-11T22:01:46.429Z,99089.03
2022-12-11T22:04:48.655Z,99092.22
2022-12-11T22:07:50.765Z,99095.72
2022-12-11T22:10:52.912Z,99093.81
2022-12-11T22:13:55.462Z,99101.13
2022-12-11T22:16:58.430Z,99109.25
2022-12-11T22:20:00.565Z,99109.50
2022-12-11T22:23:02.744Z,99101.72
2022-12-11T22:26:08.834Z,99098.22
2022-12-11T22:29:10.906Z,99103.34
2022-12-11T22:32:12.975Z,99093.31
2022-12-11T22:35:15.535Z,99099.50
2022-12-11T22:38:17.850Z,99095.22
2022-12-11T22:41:24.642Z,99099.50
2022-12-11T22:44:29.452Z,99085.50
2022-12-11T22:47:31.523Z,99086.63
2022-12-11T22:50:34.613Z,99093.72
2022-12-11T22:53:36.755Z,99112.53
2022-12-11T22:56:38.911Z,99109.50
2022-12-11T22:59:41.224Z,99114.16
2022-12-11T23:02:45.171Z,99128.44
2022-12-11T23:05:47.379Z,99120.63
2022-12-11T23:08:49.966Z,99126.84
2022-12-11T23:11:52.362Z,99133.06
2022-12-11T23:14:54.495Z,99133.34
2022-12-11T23:17:56.635Z,99126.84
2022-12-11T23:20:58.948Z,99122.25
2022-12-11T23:24:01.343Z,99119.81
2022-12-11T23:27:03.543Z,99126.03
2022-12-11T23:30:06.291Z,99127.16
2022-12-11T23:33:08.371Z,99132.25
2022-12-11T23:36:11.195Z,99121.44
2022-12-11T23:39:13.323Z,99118.75
2022-12-11T23:42:16.618Z,99119.53
2022-12-11T23:45:21.042Z,99118.75
2022-12-11T23:48:23.822Z,99120.63
2022-12-11T23:51:26.011Z,99124.13
2022-12-11T23:54:28.176Z,99124.13
2022-12-11T23:57:30.293Z,99123.34
